Terminal Aerodrome Forecast
Issued by NWS

Home | Current Version | Previous Version | Text Only | Print | Product List | Glossary On
Versions: 1 2 3 4 5 6 7 8 9 10 11 12 13
000
FTUS45 KABQ 251747
TAFFMN
TAF
KFMN 251747Z 2518/2618 12010KT P6SM FEW100 SCT150
     FM252030 26011KT P6SM SCT100
     FM260100 28011KT P6SM VCSH BKN100
     FM260400 VRB15G25KT P6SM VCTS BKN090CB
     FM260700 VRB06KT P6SM VCSH BKN100
     FM261000 09006KT P6SM BKN100=

USA.gov is the U.S. government's official web portal to all federal, state and local government web resources and services.